Terminal Aerodrome Forecast
Issued by NWS Cleveland, OH

Home | Current Version | Previous Version | Graphics & Text | Print | Product List | Glossary Off
Versions: 1 2 3 4 5 6 7 8 9 10 11 12 13 14

000
FTUS41 KCLE 262331
TAFYNG
TAF
KYNG 262331Z 2700/2724 27005KT P6SM VCSH SCT045 BKN120
      TEMPO 2700/2702 3SM -TSRA BKN030CB OVC045
     FM270200 VRB04KT P6SM SCT050 BKN150
     FM271000 25005KT P6SM FEW025 SCT050
     FM271300 26008KT P6SM SCT025 BKN035
     FM272300 29006KT P6SM FEW045 SCT120=

USA.gov is the U.S. government's official web portal to all federal, state and local government web resources and services.